Time;durP1;ratioP1;P1;durP2;ratioP2;P2;SDS_P1;SDS_P2;PMS_P1;PMS_P2;Temp;Humidity;BMP_temperature;BMP_pressure;BME280_temperature;BME280_humidity;BME280_pressure;Samples;Min_cycle;Max_cycle;Signal;HPM_P1;HPM_P2
2022/09/01 00:02:29;;;;;;;;;2.50;2.50;;;;;17.07;52.08;100350.19;5015560;28;8830;-83
2022/09/01 00:04:58;;;;;;;;;3.00;3.00;;;;;17.03;52.79;100340.75;5016107;28;8868;-84
2022/09/01 00:07:26;;;;;;;;;3.00;2.50;;;;;17.01;52.29;100345.41;5015108;28;8852;-83
2022/09/01 00:09:53;;;;;;;;;3.00;3.00;;;;;17.01;52.54;100350.78;5015223;28;9503;-84
2022/09/01 00:12:24;;;;;;;;;3.25;3.00;;;;;17.01;52.64;100352.66;5015670;28;8826;-84
2022/09/01 00:14:52;;;;;;;;;3.00;3.00;;;;;16.98;52.84;100348.44;5015282;28;8834;-84
2022/09/01 00:17:19;;;;;;;;;4.00;4.00;;;;;16.95;52.76;100354.09;5014765;28;8856;-84
2022/09/01 00:19:48;;;;;;;;;3.00;3.00;;;;;16.90;52.66;100348.34;5015648;28;8964;-84
2022/09/01 00:22:15;;;;;;;;;3.25;3.25;;;;;16.86;53.13;100349.63;5014993;28;8846;-84
2022/09/01 00:24:43;;;;;;;;;3.75;3.75;;;;;16.81;52.75;100349.25;5014688;28;8838;-84
2022/09/01 00:27:11;;;;;;;;;1.00;1.00;;;;;16.79;52.88;100345.84;5014834;28;8838;-84
2022/09/01 00:29:39;;;;;;;;;6.00;6.00;;;;;16.73;53.08;100349.16;5014592;28;8830;-84
2022/09/01 00:32:10;;;;;;;;;3.00;3.00;;;;;16.67;52.98;100357.84;5014736;28;8849;-84
2022/09/01 00:34:38;;;;;;;;;3.00;1.00;;;;;16.61;53.21;100357.56;5014702;28;8822;-84
2022/09/01 00:37:06;;;;;;;;;3.00;3.00;;;;;16.55;53.54;100355.50;5014742;28;8869;-84
2022/09/01 00:39:33;;;;;;;;;1.00;1.00;;;;;16.48;53.22;100355.25;5014883;28;8868;-84
2022/09/01 00:42:01;;;;;;;;;3.00;3.00;;;;;16.44;53.51;100356.56;5014784;28;8834;-84
2022/09/01 00:44:29;;;;;;;;;3.00;3.00;;;;;16.41;53.74;100354.13;5014979;28;8968;-84
2022/09/01 00:46:58;;;;;;;;;3.00;3.00;;;;;16.40;53.11;100352.44;5014581;28;8858;-84
2022/09/01 00:49:26;;;;;;;;;3.00;3.00;;;;;16.36;53.23;100352.88;5014587;28;8845;-84
2022/09/01 00:51:54;;;;;;;;;1.00;1.00;;;;;16.32;53.88;100348.78;5014204;28;8838;-83
2022/09/01 00:54:22;;;;;;;;;1.00;1.00;;;;;16.27;53.59;100345.69;5014141;28;8826;-83
2022/09/01 00:56:50;;;;;;;;;3.00;3.00;;;;;16.24;54.00;100345.97;5014511;28;8830;-83
2022/09/01 00:59:24;;;;;;;;;3.50;3.25;;;;;16.17;53.73;100344.03;5014145;28;8822;-84
2022/09/01 01:01:52;;;;;;;;;5.00;3.75;;;;;16.10;54.39;100348.31;5014276;28;8830;-84
2022/09/01 01:04:19;;;;;;;;;3.50;3.00;;;;;16.04;54.40;100349.75;5013999;28;8842;-84
2022/09/01 01:06:48;;;;;;;;;3.00;3.00;;;;;15.98;53.97;100344.94;5013819;28;8834;-83
2022/09/01 01:09:16;;;;;;;;;3.00;3.00;;;;;15.93;54.31;100349.06;5014315;28;8825;-83
2022/09/01 01:11:45;;;;;;;;;4.00;3.50;;;;;15.88;54.25;100344.16;5014298;28;8840;-84
2022/09/01 01:14:14;;;;;;;;;3.75;3.75;;;;;15.84;54.68;100344.59;5013898;28;8842;-83
2022/09/01 01:16:43;;;;;;;;;2.00;1.00;;;;;15.80;54.67;100343.16;5013884;28;8985;-83
2022/09/01 01:23:00;;;;;;;;;2.50;2.50;;;;;15.74;54.66;100339.22;5013416;28;8827;-83
2022/09/01 01:24:51;;;;;;;;;1.00;1.00;;;;;15.63;54.77;100342.06;5013853;28;8866;-83
2022/09/01 01:27:20;;;;;;;;;4.00;4.00;;;;;15.57;54.80;100341.81;5013724;28;8842;-84
2022/09/01 01:29:52;;;;;;;;;3.50;3.50;;;;;15.50;54.88;100346.06;5013961;28;8849;-83
2022/09/01 01:32:19;;;;;;;;;2.00;1.00;;;;;15.44;54.80;100350.16;5013977;28;8848;-83
2022/09/01 01:34:48;;;;;;;;;3.00;3.00;;;;;15.40;55.02;100351.41;5013574;28;8846;-83
2022/09/01 01:37:16;;;;;;;;;4.00;4.00;;;;;15.35;55.05;100353.72;5013623;28;8858;-83
2022/09/01 01:39:43;;;;;;;;;3.50;3.50;;;;;15.31;55.45;100348.75;5014104;28;8830;-83
2022/09/01 01:42:11;;;;;;;;;3.00;3.00;;;;;15.29;55.52;100358.75;5014245;28;8826;-83
2022/09/01 01:44:41;;;;;;;;;4.00;3.75;;;;;15.24;55.21;100355.66;5013567;28;8846;-83
2022/09/01 01:47:10;;;;;;;;;3.00;3.00;;;;;15.20;55.21;100357.78;5013559;28;9577;-83
2022/09/01 01:49:39;;;;;;;;;2.00;2.00;;;;;15.17;55.73;100359.88;5013572;28;8884;-83
2022/09/01 01:52:06;;;;;;;;;4.00;3.00;;;;;15.15;55.38;100361.84;5013478;28;8836;-83
2022/09/01 01:54:36;;;;;;;;;3.00;3.00;;;;;15.13;55.76;100361.13;5013776;28;8818;-83
2022/09/01 01:57:04;;;;;;;;;3.00;3.00;;;;;15.11;55.58;100358.59;5013641;28;8980;-83
2022/09/01 01:59:32;;;;;;;;;2.50;2.50;;;;;15.10;56.02;100364.94;5013653;28;8914;-83
2022/09/01 02:02:02;;;;;;;;;1.00;1.00;;;;;15.07;55.72;100372.44;5013989;28;8830;-83
2022/09/01 02:04:33;;;;;;;;;4.00;4.00;;;;;15.04;55.39;100362.00;5013450;28;8830;-83
2022/09/01 02:07:00;;;;;;;;;3.50;3.00;;;;;15.02;56.21;100362.13;5013833;28;8877;-83
2022/09/01 02:09:28;;;;;;;;;4.00;4.00;;;;;15.00;55.45;100365.91;5013876;28;8914;-83
2022/09/01 02:11:57;;;;;;;;;3.00;3.00;;;;;15.01;55.55;100364.97;5013319;28;8862;-83
2022/09/01 02:14:25;;;;;;;;;3.00;3.00;;;;;15.03;56.08;100365.66;5012668;28;8846;-83
2022/09/01 02:16:54;;;;;;;;;3.50;3.50;;;;;15.05;56.10;100363.69;5013295;28;8962;-83
2022/09/01 02:19:22;;;;;;;;;3.00;3.00;;;;;15.02;55.68;100363.97;5013195;28;8849;-83
2022/09/01 02:21:53;;;;;;;;;6.75;5.50;;;;;15.00;55.82;100360.56;5013374;28;8838;-83
2022/09/01 02:24:21;;;;;;;;;5.00;5.00;;;;;15.03;55.39;100362.97;5012850;28;8826;-83
2022/09/01 02:26:48;;;;;;;;;3.00;3.00;;;;;15.07;55.59;100369.75;5013533;28;8838;-83
2022/09/01 02:29:19;;;;;;;;;3.25;3.25;;;;;15.05;55.86;100369.91;5013145;28;8830;-83
2022/09/01 02:31:47;;;;;;;;;5.50;4.00;;;;;15.01;55.86;100363.13;5016703;28;8854;-83
2022/09/01 02:34:15;;;;;;;;;4.00;4.00;;;;;14.98;55.86;100367.91;5016705;28;9483;-83
2022/09/01 02:36:46;;;;;;;;;3.25;3.25;;;;;14.95;56.15;100360.16;5016595;28;9314;-83
2022/09/01 02:39:14;;;;;;;;;3.50;3.50;;;;;14.91;56.78;100361.41;5016376;28;8822;-83
2022/09/01 02:41:41;;;;;;;;;5.00;4.00;;;;;14.83;55.92;100356.75;5016171;28;8972;-83
2022/09/01 02:44:11;;;;;;;;;6.25;6.25;;;;;14.76;56.24;100352.06;5016817;28;8830;-83
2022/09/01 02:46:40;;;;;;;;;4.50;4.50;;;;;14.69;56.27;100356.28;5016449;28;8984;-83
2022/09/01 02:49:14;;;;;;;;;3.75;3.75;;;;;14.62;56.56;100356.00;5016491;28;8842;-83
2022/09/01 02:51:41;;;;;;;;;2.00;2.00;;;;;14.57;56.20;100352.03;5016179;28;8830;-83
2022/09/01 02:54:09;;;;;;;;;3.00;0.75;;;;;14.51;56.83;100356.09;5016073;28;8830;-83
2022/09/01 02:56:37;;;;;;;;;3.50;3.00;;;;;14.44;57.17;100352.28;5016571;28;8822;-83
2022/09/01 02:59:11;;;;;;;;;6.50;5.00;;;;;14.39;57.02;100349.16;5016385;28;9538;-83
2022/09/01 03:01:39;;;;;;;;;3.75;3.75;;;;;14.34;57.16;100355.91;5015996;28;8844;-83
2022/09/01 03:04:08;;;;;;;;;3.50;3.50;;;;;14.28;56.98;100356.44;5016692;28;8840;-83
2022/09/01 03:06:36;;;;;;;;;5.50;4.00;;;;;14.24;57.51;100352.31;5015920;28;8968;-83
2022/09/01 03:09:04;;;;;;;;;4.00;4.00;;;;;14.18;57.52;100353.72;5016082;28;8850;-83
2022/09/01 03:11:32;;;;;;;;;3.00;3.00;;;;;14.14;57.39;100356.78;5015967;28;8961;-83
2022/09/01 03:14:00;;;;;;;;;4.00;4.00;;;;;14.11;57.46;100355.22;5015888;28;8830;-83
2022/09/01 03:16:29;;;;;;;;;5.00;3.50;;;;;14.10;57.52;100355.34;5015784;28;8852;-83
2022/09/01 03:18:57;;;;;;;;;3.75;3.00;;;;;14.08;57.17;100359.97;5015774;28;8862;-83
2022/09/01 03:21:25;;;;;;;;;3.00;3.00;;;;;14.11;57.73;100351.69;5016107;28;8852;-83
2022/09/01 03:23:52;;;;;;;;;3.75;3.00;;;;;14.12;57.16;100366.78;5015719;28;8842;-83
2022/09/01 03:26:21;;;;;;;;;5.00;5.00;;;;;14.17;57.70;100360.03;5015693;28;8834;-83
2022/09/01 03:28:51;;;;;;;;;4.25;4.25;;;;;14.24;57.51;100357.69;5016333;28;8868;-83
2022/09/01 03:31:19;;;;;;;;;3.25;3.00;;;;;14.27;57.65;100352.06;5015774;28;8841;-83
2022/09/01 03:33:47;;;;;;;;;4.00;4.00;;;;;14.28;57.03;100351.09;5015583;28;8904;-83
2022/09/01 03:36:19;;;;;;;;;4.00;4.00;;;;;14.28;57.16;100356.44;5015797;28;8830;-83
2022/09/01 03:38:48;;;;;;;;;4.00;4.00;;;;;14.23;57.35;100353.31;5015708;28;8846;-83
2022/09/01 03:41:16;;;;;;;;;3.50;3.50;;;;;14.17;57.64;100354.69;5015127;28;8856;-83
2022/09/01 03:43:44;;;;;;;;;3.50;3.50;;;;;14.11;57.89;100355.22;5015120;28;8842;-83
2022/09/01 03:46:18;;;;;;;;;3.50;3.50;;;;;14.04;57.56;100355.91;5015374;28;8846;-83
2022/09/01 03:48:49;;;;;;;;;4.00;3.00;;;;;13.98;57.89;100353.75;5015511;28;8838;-83
2022/09/01 03:51:16;;;;;;;;;3.50;3.00;;;;;13.92;58.07;100349.78;5015565;28;8834;-83
2022/09/01 03:53:46;;;;;;;;;4.50;4.00;;;;;13.88;57.84;100358.22;5015190;28;8969;-83
2022/09/01 03:56:14;;;;;;;;;3.25;3.00;;;;;13.85;58.20;100366.50;5015722;28;8845;-83
2022/09/01 03:58:45;;;;;;;;;3.75;3.00;;;;;13.88;57.72;100360.88;5015002;28;8823;-83
2022/09/01 04:01:14;;;;;;;;;4.75;4.75;;;;;13.89;58.00;100365.25;5015296;28;8834;-83
2022/09/01 04:03:47;;;;;;;;;3.50;3.25;;;;;13.85;58.06;100370.03;5015063;28;8827;-83
2022/09/01 04:06:17;;;;;;;;;3.50;3.50;;;;;13.84;58.24;100370.16;5015316;28;8921;-83
2022/09/01 04:08:45;;;;;;;;;4.00;4.00;;;;;13.82;57.90;100364.91;5015259;28;8884;-83
2022/09/01 04:11:15;;;;;;;;;4.00;4.00;;;;;13.81;58.25;100368.56;5015470;28;8840;-83
2022/09/01 04:13:42;;;;;;;;;3.50;3.50;;;;;13.78;58.45;100362.63;5015247;28;8827;-83
2022/09/01 04:18:03;;;;;;;;;4.00;4.00;;;;;13.78;58.66;100362.63;5015363;28;8830;-83
2022/09/01 04:18:59;;;;;;;;;4.00;4.00;;;;;13.85;58.61;100358.47;5015190;28;8874;-83
2022/09/01 04:21:29;;;;;;;;;3.75;3.75;;;;;13.91;58.17;100360.63;5014867;28;9504;-83
2022/09/01 04:24:04;;;;;;;;;1.50;1.50;;;;;13.91;58.14;100358.78;5015568;28;8952;-83
2022/09/01 04:26:32;;;;;;;;;3.00;0.75;;;;;13.88;58.26;100359.03;5014556;28;8846;-83
2022/09/01 04:29:01;;;;;;;;;4.00;4.00;;;;;13.82;58.31;100358.72;5014972;28;8838;-83
2022/09/01 04:31:29;;;;;;;;;3.75;3.00;;;;;13.76;58.41;100357.44;5014636;28;8941;-83
2022/09/01 04:33:57;;;;;;;;;3.25;3.25;;;;;13.71;58.50;100356.97;5014397;28;8902;-83
2022/09/01 04:36:26;;;;;;;;;4.00;4.00;;;;;13.66;58.26;100358.34;5014818;28;8969;-83
2022/09/01 04:38:54;;;;;;;;;3.00;3.00;;;;;13.62;58.57;100354.22;5014723;28;8888;-83
2022/09/01 04:41:24;;;;;;;;;1.00;1.00;;;;;13.59;58.56;100359.84;5014261;28;8844;-83
2022/09/01 04:43:55;;;;;;;;;4.00;4.00;;;;;13.55;58.73;100361.09;5014800;28;8964;-83
2022/09/01 04:46:25;;;;;;;;;3.00;3.00;;;;;13.53;58.79;100371.06;5014067;28;8826;-83
2022/09/01 04:48:53;;;;;;;;;1.00;1.00;;;;;13.49;59.04;100364.28;5014330;28;8827;-83
2022/09/01 04:51:21;;;;;;;;;5.00;4.00;;;;;13.46;59.07;100372.56;5014246;28;8966;-83
2022/09/01 04:53:49;;;;;;;;;3.00;3.00;;;;;13.43;58.76;100364.81;5013599;28;8870;-83
2022/09/01 04:56:18;;;;;;;;;3.25;2.50;;;;;13.39;59.04;100360.69;5014510;28;8822;-83
2022/09/01 04:58:46;;;;;;;;;6.00;4.50;;;;;13.36;59.04;100355.63;5014347;28;8830;-83
2022/09/01 05:01:14;;;;;;;;;4.00;4.00;;;;;13.34;59.21;100366.44;5015001;28;8830;-84
2022/09/01 05:03:44;;;;;;;;;3.00;3.00;;;;;13.34;59.19;100362.91;5014125;28;8842;-84
2022/09/01 05:06:12;;;;;;;;;3.50;3.50;;;;;13.34;59.09;100357.53;5014259;28;8840;-84
2022/09/01 05:08:40;;;;;;;;;4.00;4.00;;;;;13.34;58.92;100363.75;5013686;28;9484;-83
2022/09/01 05:11:11;;;;;;;;;3.75;3.00;;;;;13.36;58.82;100361.78;5014049;28;9476;-83
2022/09/01 05:13:39;;;;;;;;;3.00;3.00;;;;;13.39;59.16;100364.22;5013860;28;8847;-83
2022/09/01 05:16:11;;;;;;;;;4.00;4.00;;;;;13.43;58.66;100362.97;5013989;28;8834;-84
2022/09/01 05:18:39;;;;;;;;;4.00;3.00;;;;;13.46;58.59;100361.88;5014273;28;8862;-84
2022/09/01 05:21:09;;;;;;;;;4.00;4.00;;;;;13.50;58.25;100365.97;5014067;28;8842;-83
2022/09/01 05:23:39;;;;;;;;;4.00;3.75;;;;;13.55;58.84;100353.91;5013675;28;8830;-84
2022/09/01 05:26:13;;;;;;;;;5.00;4.00;;;;;13.60;58.38;100359.72;5013625;28;8961;-84
2022/09/01 05:28:42;;;;;;;;;3.50;3.50;;;;;13.67;58.13;100354.69;5013535;28;8978;-83
2022/09/01 05:31:11;;;;;;;;;4.00;3.00;;;;;13.72;58.36;100357.81;5013627;28;8853;-83
2022/09/01 05:33:44;;;;;;;;;5.50;5.00;;;;;13.79;57.96;100357.16;5013958;28;8834;-83
2022/09/01 05:36:12;;;;;;;;;4.50;3.50;;;;;13.85;57.96;100361.13;5013807;28;8834;-83
2022/09/01 05:38:41;;;;;;;;;4.50;4.00;;;;;13.94;57.64;100363.88;5014035;28;8861;-83
2022/09/01 05:41:09;;;;;;;;;3.75;3.00;;;;;14.09;57.63;100364.34;5013696;28;8846;-83
2022/09/01 05:43:38;;;;;;;;;6.00;5.00;;;;;14.20;57.25;100365.16;5013774;28;8834;-83
2022/09/01 05:46:06;;;;;;;;;6.00;6.00;;;;;14.31;57.17;100357.03;5014050;28;8850;-83
2022/09/01 05:48:38;;;;;;;;;7.00;4.50;;;;;14.45;56.63;100358.47;5012693;28;8846;-83
2022/09/01 05:51:07;;;;;;;;;3.00;3.00;;;;;14.59;56.29;100366.13;5013589;28;8814;-83
2022/09/01 05:53:57;;;;;;;;;5.00;5.00;;;;;14.70;56.20;100357.97;5013711;28;8830;-83
2022/09/01 05:56:25;;;;;;;;;6.00;6.00;;;;;14.78;56.37;100356.31;5014063;28;8830;-83
2022/09/01 05:58:53;;;;;;;;;6.25;6.00;;;;;14.89;56.12;100363.38;5013599;28;9626;-83
2022/09/01 06:01:41;;;;;;;;;3.75;3.00;;;;;15.02;56.06;100362.13;5013820;28;8881;-83
2022/09/01 06:04:15;;;;;;;;;4.00;4.00;;;;;15.14;55.54;100363.69;5015382;28;8827;-83
2022/09/01 06:06:45;;;;;;;;;6.25;4.50;;;;;15.32;55.68;100363.88;5017378;28;8918;-83
2022/09/01 06:09:32;;;;;;;;;3.00;2.00;;;;;15.55;55.02;100362.59;5017060;28;8838;-83
2022/09/01 06:12:01;;;;;;;;;4.50;4.50;;;;;15.76;54.14;100357.91;5015939;28;8842;-83
2022/09/01 06:14:29;;;;;;;;;6.00;5.00;;;;;15.93;54.43;100357.13;5017232;28;8848;-83
2022/09/01 06:16:57;;;;;;;;;3.50;3.25;;;;;16.12;54.35;100363.28;5017329;28;8834;-83
2022/09/01 06:19:25;;;;;;;;;3.75;3.50;;;;;16.26;54.05;100355.59;5016648;28;8964;-84
2022/09/01 06:21:55;;;;;;;;;6.00;6.00;;;;;16.41;53.74;100354.13;5016458;28;8850;-83
2022/09/01 06:24:23;;;;;;;;;1.00;1.00;;;;;16.56;53.28;100360.72;5017350;28;8848;-83
2022/09/01 06:26:50;;;;;;;;;4.50;4.50;;;;;16.69;53.42;100353.16;5017041;28;8842;-83
2022/09/01 06:29:19;;;;;;;;;3.25;3.25;;;;;16.83;52.78;100357.16;5016850;28;8893;-83
2022/09/01 06:31:51;;;;;;;;;7.00;6.50;;;;;16.96;52.75;100355.81;5016530;28;8868;-84
2022/09/01 06:34:19;;;;;;;;;3.50;3.00;;;;;17.20;52.18;100364.13;5016890;28;8964;-84
2022/09/01 06:36:47;;;;;;;;;4.40;4.00;;;;;17.36;52.25;100368.78;5016092;28;9456;-84
2022/09/01 06:39:18;;;;;;;;;4.00;4.00;;;;;17.43;52.17;100359.13;5017003;28;8943;-83
2022/09/01 06:41:48;;;;;;;;;3.20;3.20;;;;;17.52;52.51;100353.66;5017020;28;8923;-83
2022/09/01 06:44:21;;;;;;;;;5.60;4.40;;;;;17.64;52.11;100362.34;5016492;28;9514;-83
2022/09/01 06:46:49;;;;;;;;;6.20;6.00;;;;;17.71;52.12;100361.59;5016307;28;8858;-84
2022/09/01 06:49:16;;;;;;;;;6.00;6.00;;;;;17.81;51.75;100358.75;5016168;28;8895;-84
2022/09/01 06:51:50;;;;;;;;;4.00;4.00;;;;;17.89;51.56;100356.13;5015285;28;9524;-84
2022/09/01 06:54:18;;;;;;;;;2.60;2.60;;;;;17.96;51.82;100358.03;5015474;28;8931;-84
2022/09/01 06:57:06;;;;;;;;;3.60;3.60;;;;;18.07;51.92;100365.84;5015705;28;9589;-83
2022/09/01 06:59:54;;;;;;;;;6.00;6.00;;;;;18.19;51.58;100361.88;5016053;28;8835;-83
2022/09/01 07:02:21;;;;;;;;;4.00;4.00;;;;;18.30;51.33;100356.22;5016066;28;8850;-83
2022/09/01 07:05:09;;;;;;;;;6.80;6.80;;;;;18.43;51.25;100367.44;5016319;28;9546;-84
2022/09/01 07:07:57;;;;;;;;;3.60;3.60;;;;;18.55;51.47;100365.28;5015076;28;8958;-84
2022/09/01 07:10:32;;;;;;;;;3.60;1.00;;;;;18.65;51.14;100366.00;5015899;28;8818;-84
2022/09/01 07:13:22;;;;;;;;;3.20;3.20;;;;;18.75;50.52;100367.56;5015769;28;9000;-84
2022/09/01 07:15:51;;;;;;;;;3.00;3.00;;;;;18.86;51.10;100369.13;5014561;28;8845;-84
2022/09/01 07:18:39;;;;;;;;;1.00;1.00;;;;;18.96;50.82;100365.25;5015819;28;8850;-84
2022/09/01 07:21:08;;;;;;;;;1.00;1.00;;;;;19.06;50.81;100370.53;5016114;28;8910;-84
2022/09/01 07:24:00;;;;;;;;;4.00;3.00;;;;;19.22;50.25;100371.44;5015433;28;8876;-84
2022/09/01 07:26:37;;;;;;;;;3.00;3.00;;;;;19.33;50.46;100363.00;5015458;28;8834;-84
2022/09/01 07:29:14;;;;;;;;;2.80;2.80;;;;;19.41;49.94;100365.72;5015895;28;8846;-84
2022/09/01 07:31:42;;;;;;;;;2.20;2.20;;;;;19.50;49.60;100364.69;5015537;28;8830;-84
2022/09/01 07:34:30;;;;;;;;;3.00;3.00;;;;;19.60;49.68;100368.09;5015604;28;8874;-84
2022/09/01 07:37:06;;;;;;;;;2.80;2.60;;;;;19.73;49.77;100364.88;5014730;28;8834;-84
2022/09/01 07:39:54;;;;;;;;;4.00;4.00;;;;;19.87;49.39;100366.91;5014818;28;8858;-84
2022/09/01 07:42:23;;;;;;;;;2.20;2.20;;;;;19.97;49.24;100357.59;5014799;28;8858;-84
2022/09/01 07:45:10;;;;;;;;;3.20;3.20;;;;;20.06;48.94;100353.88;5014666;28;8889;-84
2022/09/01 07:47:55;;;;;;;;;1.00;1.00;;;;;20.17;48.80;100361.63;5014672;28;8882;-84
2022/09/01 07:50:25;;;;;;;;;2.40;2.40;;;;;20.29;48.62;100352.13;5015201;28;8854;-84
2022/09/01 07:53:07;;;;;;;;;4.00;3.20;;;;;20.42;48.68;100352.44;5013638;28;8993;-84
2022/09/01 07:55:35;;;;;;;;;2.80;2.80;;;;;20.50;48.27;100348.84;5014440;28;8885;-84
2022/09/01 07:58:02;;;;;;;;;2.80;2.00;;;;;20.60;47.97;100344.91;5014816;28;8846;-84
2022/09/01 08:00:30;;;;;;;;;2.00;2.00;;;;;20.69;48.08;100349.25;5014794;28;8960;-84
2022/09/01 08:02:58;;;;;;;;;4.40;4.00;;;;;20.77;48.41;100346.50;5014577;28;8838;-85
2022/09/01 08:05:27;;;;;;;;;2.00;2.00;;;;;20.86;47.57;100345.44;5014414;28;8845;-85
2022/09/01 08:07:55;;;;;;;;;4.00;4.00;;;;;20.96;47.77;100351.53;5014203;28;8961;-84
2022/09/01 08:10:23;;;;;;;;;2.00;2.00;;;;;21.06;47.47;100342.16;5014883;28;8853;-84
2022/09/01 08:12:51;;;;;;;;;2.40;2.40;;;;;21.16;47.46;100344.63;5014886;28;9669;-84
2022/09/01 08:15:26;;;;;;;;;4.00;4.00;;;;;21.23;47.06;100343.72;5014943;28;8822;-84
2022/09/01 08:18:14;;;;;;;;;2.00;2.00;;;;;21.32;47.53;100341.78;5014807;28;8863;-85
2022/09/01 08:20:44;;;;;;;;;2.80;2.00;;;;;21.40;46.83;100348.00;5014910;28;9608;-85
2022/09/01 08:23:12;;;;;;;;;4.40;4.00;;;;;21.46;47.00;100350.00;5014623;28;9476;-84
2022/09/01 08:25:40;;;;;;;;;2.00;2.00;;;;;21.55;47.09;100353.50;5014981;28;8842;-84
2022/09/01 08:28:08;;;;;;;;;5.00;2.00;;;;;21.64;46.47;100349.69;5013677;28;8855;-84
2022/09/01 08:30:36;;;;;;;;;4.00;4.00;;;;;21.74;46.37;100344.88;5014932;28;8858;-84
2022/09/01 08:33:04;;;;;;;;;3.20;2.80;;;;;21.87;46.31;100351.34;5014859;28;8961;-84
2022/09/01 08:35:39;;;;;;;;;2.00;2.00;;;;;22.01;46.37;100345.09;5014672;28;8926;-84
2022/09/01 08:38:07;;;;;;;;;1.60;1.60;;;;;22.15;45.84;100349.72;5015070;28;8814;-85
2022/09/01 08:40:34;;;;;;;;;2.00;2.00;;;;;22.27;45.44;100352.81;5014677;28;8822;-84
2022/09/01 08:43:03;;;;;;;;;1.00;1.00;;;;;22.37;45.80;100340.63;5014433;28;9542;-85
2022/09/01 08:45:30;;;;;;;;;2.00;2.00;;;;;22.49;45.11;100346.47;5013616;28;8927;-85
2022/09/01 08:47:58;;;;;;;;;2.00;2.00;;;;;22.63;45.37;100345.63;5013916;28;8865;-85
2022/09/01 08:50:45;;;;;;;;;2.80;2.40;;;;;22.78;45.23;100349.16;5014006;28;8943;-85
2022/09/01 08:53:19;;;;;;;;;2.80;2.80;;;;;22.87;44.77;100348.88;5014009;28;8878;-85
2022/09/01 08:55:47;;;;;;;;;2.00;2.00;;;;;22.98;44.72;100333.94;5014179;28;8842;-85
2022/09/01 08:58:15;;;;;;;;;4.20;4.20;;;;;23.09;44.46;100336.16;5013879;28;8858;-85
2022/09/01 09:00:44;;;;;;;;;4.60;4.60;;;;;23.21;44.14;100331.94;5013756;28;8964;-84
2022/09/01 09:03:19;;;;;;;;;4.00;4.00;;;;;23.33;44.01;100330.38;5013482;28;8830;-85
2022/09/01 09:05:47;;;;;;;;;4.20;4.20;;;;;23.44;44.02;100327.97;5013878;28;8830;-85
2022/09/01 09:08:15;;;;;;;;;6.60;3.60;;;;;23.44;43.73;100335.31;5013532;28;8830;-85
2022/09/01 09:10:46;;;;;;;;;4.40;4.20;;;;;23.37;44.14;100334.41;5013451;28;8822;-85
2022/09/01 09:13:15;;;;;;;;;5.00;5.00;;;;;23.52;44.02;100336.00;5013509;28;8835;-85
2022/09/01 09:15:43;;;;;;;;;2.20;2.00;;;;;23.73;43.13;100335.97;5013841;28;8845;-86
2022/09/01 09:18:11;;;;;;;;;4.20;4.20;;;;;23.78;43.69;100327.22;5012990;28;8906;-85
2022/09/01 09:20:59;;;;;;;;;4.00;4.00;;;;;23.95;43.15;100332.22;5013709;28;8822;-85
2022/09/01 09:23:26;;;;;;;;;3.20;3.20;;;;;23.97;43.29;100324.69;5013733;28;8834;-86
2022/09/01 09:25:54;;;;;;;;;3.00;3.00;;;;;23.88;43.61;100325.03;5013906;28;8930;-85
2022/09/01 09:28:23;;;;;;;;;2.00;2.00;;;;;23.88;43.45;100317.72;5013127;28;8871;-85
2022/09/01 09:30:52;;;;;;;;;3.20;3.20;;;;;23.77;43.47;100328.25;5013213;28;8893;-85
2022/09/01 09:33:20;;;;;;;;;2.00;2.00;;;;;23.67;43.54;100322.34;5013361;28;8822;-85
2022/09/01 09:36:08;;;;;;;;;4.20;2.80;;;;;23.58;43.52;100320.78;5012361;28;8962;-85
2022/09/01 09:38:35;;;;;;;;;3.00;2.60;;;;;23.60;43.26;100314.09;5012646;28;8826;-85
2022/09/01 09:41:03;;;;;;;;;3.80;3.80;;;;;23.85;43.17;100318.09;5012437;28;8837;-85
2022/09/01 09:43:47;;;;;;;;;5.00;3.20;;;;;24.06;43.28;100311.78;5012829;28;8842;-85
2022/09/01 09:46:15;;;;;;;;;4.60;3.20;;;;;24.31;42.46;100304.81;5013196;28;8960;-85
2022/09/01 09:48:52;;;;;;;;;1.00;0.60;;;;;24.33;42.87;100300.00;5013059;28;9228;-84
2022/09/01 09:51:20;;;;;;;;;2.40;2.40;;;;;24.22;42.66;100298.69;5013634;28;8830;-85
2022/09/01 09:53:48;;;;;;;;;5.00;5.00;;;;;24.32;42.15;100299.16;5013193;28;8899;-86
2022/09/01 09:56:16;;;;;;;;;5.00;3.40;;;;;24.63;41.58;100299.56;5013707;28;8860;-86
2022/09/01 09:58:45;;;;;;;;;2.60;2.60;;;;;25.56;40.76;100294.16;5013311;28;8922;-85
2022/09/01 10:01:15;;;;;;;;;5.00;5.00;;;;;26.40;39.21;100280.41;5013300;28;9531;-86
2022/09/01 10:03:44;;;;;;;;;3.00;3.00;;;;;27.43;38.36;100281.78;5012928;28;8834;-85
2022/09/01 10:06:12;;;;;;;;;3.00;3.00;;;;;27.86;37.48;100277.22;5015274;28;9520;-85
2022/09/01 10:08:43;;;;;;;;;3.00;3.00;;;;;27.27;37.91;100276.00;5020386;28;8845;-86
2022/09/01 10:11:12;;;;;;;;;2.00;2.00;;;;;26.91;38.95;100283.97;5017797;28;8846;-85
2022/09/01 10:13:40;;;;;;;;;3.60;3.60;;;;;26.91;38.72;100273.88;5020043;28;8826;-86
2022/09/01 10:16:09;;;;;;;;;4.20;4.20;;;;;26.66;39.10;100272.97;5018245;28;8970;-87
2022/09/01 10:18:37;;;;;;;;;3.00;3.00;;;;;26.81;38.91;100270.78;5021245;28;8842;-85
2022/09/01 10:21:05;;;;;;;;;3.00;3.00;;;;;26.77;38.85;100264.06;5012886;28;9535;-85
2022/09/01 10:23:33;;;;;;;;;2.80;2.80;;;;;27.61;37.97;100265.41;5012697;28;8858;-86
2022/09/01 10:26:01;;;;;;;;;1.60;1.60;;;;;28.79;36.47;100260.38;5012824;28;8877;-85
2022/09/01 10:28:32;;;;;;;;;2.80;2.80;;;;;29.88;34.72;100249.81;5012351;28;8972;-85
2022/09/01 10:31:01;;;;;;;;;3.00;3.00;;;;;30.74;33.35;100251.53;5012626;28;8822;-85
2022/09/01 10:33:30;;;;;;;;;3.00;2.20;;;;;31.18;32.51;100256.28;5013110;28;8858;-85
2022/09/01 10:35:57;;;;;;;;;3.00;3.00;;;;;30.63;33.66;100252.38;5012358;28;8822;-85
2022/09/01 10:38:25;;;;;;;;;3.60;3.60;;;;;29.64;35.27;100251.72;5012406;28;8854;-85
2022/09/01 10:41:05;;;;;;;;;3.40;3.40;;;;;28.82;36.53;100257.16;5012406;28;8842;-83
2022/09/01 10:43:34;;;;;;;;;2.00;2.00;;;;;28.03;37.12;100250.94;5012647;28;9008;-85
2022/09/01 10:46:04;;;;;;;;;4.00;3.80;;;;;27.45;37.79;100257.75;5011810;28;8974;-85
2022/09/01 10:48:41;;;;;;;;;3.00;2.20;;;;;27.54;37.87;100259.16;5012101;28;8823;-85
2022/09/01 10:51:22;;;;;;;;;3.20;3.20;;;;;28.07;36.25;100246.66;5018223;28;8842;-85
2022/09/01 10:54:02;;;;;;;;;2.80;2.80;;;;;27.76;37.29;100252.25;5026779;28;8872;-86
2022/09/01 10:56:30;;;;;;;;;4.00;3.20;;;;;27.96;36.94;100241.94;5015336;28;8830;-86
2022/09/01 10:59:03;;;;;;;;;3.40;3.40;;;;;29.12;35.04;100243.47;5015250;28;8994;-86
2022/09/01 11:01:51;;;;;;;;;4.00;4.00;;;;;29.74;34.58;100235.47;5015243;28;8850;-86
2022/09/01 11:04:19;;;;;;;;;3.20;3.20;;;;;30.55;33.25;100238.97;5014446;28;8880;-85
2022/09/01 11:06:47;;;;;;;;;4.20;4.20;;;;;30.37;33.62;100236.41;5015175;28;8849;-86
2022/09/01 11:09:35;;;;;;;;;3.00;3.00;;;;;31.13;32.71;100242.38;5015138;28;9608;-85
2022/09/01 11:12:03;;;;;;;;;3.00;2.40;;;;;32.14;31.48;100234.69;5014611;28;8860;-85
2022/09/01 11:14:34;;;;;;;;;4.00;3.40;;;;;33.11;30.90;100233.75;5015075;28;8819;-86
2022/09/01 11:17:02;;;;;;;;;3.20;3.20;;;;;33.79;29.80;100233.84;5015073;28;9572;-84
2022/09/01 11:19:30;;;;;;;;;4.00;4.00;;;;;33.58;30.02;100227.31;5014665;28;8854;-83
2022/09/01 11:21:58;;;;;;;;;3.20;3.20;;;;;32.27;31.92;100237.97;5014222;28;8871;-83
2022/09/01 11:24:26;;;;;;;;;3.20;2.60;;;;;31.15;32.75;100246.56;5014347;28;8842;-83
2022/09/01 11:26:54;;;;;;;;;3.00;3.00;;;;;31.68;31.96;100235.94;5015067;28;8854;-83
2022/09/01 11:29:22;;;;;;;;;4.00;4.00;;;;;32.59;30.50;100238.94;5014535;28;8870;-84
2022/09/01 11:31:49;;;;;;;;;4.00;4.00;;;;;33.39;30.40;100228.78;5014042;28;8838;-83
2022/09/01 11:34:17;;;;;;;;;3.80;3.80;;;;;34.11;29.13;100226.31;5014155;28;8826;-85
2022/09/01 11:36:46;;;;;;;;;3.80;3.80;;;;;34.71;27.96;100234.94;5013756;28;8845;-83
2022/09/01 11:39:14;;;;;;;;;3.60;3.60;;;;;35.30;28.13;100234.31;5014202;28;8846;-83
2022/09/01 11:41:44;;;;;;;;;3.60;3.00;;;;;34.66;28.38;100234.94;5014254;28;8880;-83
2022/09/01 11:44:11;;;;;;;;;4.00;4.00;;;;;33.33;30.33;100235.41;5014494;28;8854;-83
2022/09/01 11:46:42;;;;;;;;;4.20;3.00;;;;;33.59;29.58;100233.69;5015348;28;8854;-84
2022/09/01 11:49:10;;;;;;;;;4.00;4.00;;;;;34.36;28.33;100223.72;5014919;28;8868;-83
2022/09/01 11:51:38;;;;;;;;;2.00;2.00;;;;;35.18;27.82;100222.63;5014080;28;8861;-83
2022/09/01 11:54:06;;;;;;;;;3.20;3.20;;;;;35.04;27.66;100226.22;5014894;28;8969;-84